This is the latest recevied weather packets stored in our database for station/object XE1MMG-6. If no packets are shown the sender has not sent any weather packets the latest 1 day(s).
| Time | Temp. | Humidity | Pressure | Rain* | Wind** | Luminosity | Snow |
|---|---|---|---|---|---|---|---|
| 1778098972 | 33.89° C | 27% | 810 hPa | - | - | - | - |
| 1778098358 | 33.89° C | 27% | 810.2 hPa | - | - | - | - |
| 1778095901 | 32.78° C | 28% | 810.9 hPa | - | - | - | - |
| 1778095287 | 33.33° C | 28% | 811.1 hPa | - | - | - | - |
| 1778093444 | 32.78° C | 28% | 811.6 hPa | - | - | - | - |
| 1778092830 | 32.22° C | 27% | 811.8 hPa | - | - | - | - |
| 1778090373 | 31.67° C | 32% | 812.2 hPa | - | - | - | - |
| 1778089759 | 32.22° C | 31% | 812.3 hPa | - | - | - | - |
| 1778089145 | 32.22° C | 31% | 812.4 hPa | - | - | - | - |
| 1778086688 | 31.11° C | 32% | 812.9 hPa | - | - | - | - |
| 1778086074 | 31.11° C | 33% | 812.9 hPa | - | - | - | - |
| 1778084231 | 31.11° C | 34% | 813.2 hPa | - | - | - | - |
| 1778083617 | 31.11° C | 35% | 813.2 hPa | - | - | - | - |
| 1778081774 | 30° C | 35% | 813.3 hPa | - | - | - | - |
| 1778076246 | 31.11° C | 31% | 813.2 hPa | - | - | - | - |
| 1778075632 | 31.11° C | 31% | 813.2 hPa | - | - | - | - |
| 1778075018 | 30° C | 33% | 813.2 hPa | - | - | - | - |
| 1778073175 | 27.78° C | 37% | 813 hPa | - | - | - | - |
| 1778072561 | 28.33° C | 35% | 813.1 hPa | - | - | - | - |
| 1778071947 | 27.78° C | 36% | 813 hPa | - | - | - | - |
| 1778068261 | 28.89° C | 34% | 812.7 hPa | - | - | - | - |
| 1778067647 | 28.89° C | 35% | 812.6 hPa | - | - | - | - |
| 1778067033 | 28.89° C | 34% | 812.5 hPa | - | - | - | - |
| 1778066419 | 28.89° C | 34% | 812.5 hPa | - | - | - | - |
| 1778064576 | 30° C | 34% | 812.3 hPa | - | - | - | - |
* Rain since midnight (hover to see other rain measurements)
** Current wind speed in m/s (hover to see current wind gust speed)